sensor_id;sensor_type;location;lat;lon;timestamp;P1;durP1;ratioP1;P2;durP2;ratioP2
49015;SDS011;34830;44.064;12.566;2023-03-01T00:01:26;20.65;;;6.00;;
49015;SDS011;34830;44.064;12.566;2023-03-01T00:03:54;21.77;;;5.63;;
49015;SDS011;34830;44.064;12.566;2023-03-01T00:06:21;27.75;;;8.05;;
49015;SDS011;34830;44.064;12.566;2023-03-01T00:08:47;20.27;;;5.45;;
49015;SDS011;34830;44.064;12.566;2023-03-01T00:11:24;20.23;;;7.75;;
49015;SDS011;34830;44.064;12.566;2023-03-01T00:13:53;18.88;;;5.82;;
49015;SDS011;34830;44.064;12.566;2023-03-01T00:16:31;14.20;;;5.43;;
49015;SDS011;34830;44.064;12.566;2023-03-01T00:18:59;21.13;;;6.68;;
49015;SDS011;34830;44.064;12.566;2023-03-01T00:21:25;16.73;;;5.72;;
49015;SDS011;34830;44.064;12.566;2023-03-01T00:23:52;16.67;;;5.68;;
49015;SDS011;34830;44.064;12.566;2023-03-01T00:26:19;20.02;;;7.15;;
49015;SDS011;34830;44.064;12.566;2023-03-01T00:28:47;15.55;;;5.30;;
49015;SDS011;34830;44.064;12.566;2023-03-01T00:31:14;18.50;;;6.05;;
49015;SDS011;34830;44.064;12.566;2023-03-01T00:33:43;16.40;;;5.38;;
49015;SDS011;34830;44.064;12.566;2023-03-01T00:36:10;19.35;;;6.45;;
49015;SDS011;34830;44.064;12.566;2023-03-01T00:38:42;12.40;;;4.90;;
49015;SDS011;34830;44.064;12.566;2023-03-01T00:41:11;22.63;;;6.75;;
49015;SDS011;34830;44.064;12.566;2023-03-01T00:43:39;23.10;;;7.30;;
49015;SDS011;34830;44.064;12.566;2023-03-01T00:46:07;18.10;;;6.00;;
49015;SDS011;34830;44.064;12.566;2023-03-01T00:48:43;18.35;;;7.47;;
49015;SDS011;34830;44.064;12.566;2023-03-01T00:51:13;16.98;;;8.15;;
49015;SDS011;34830;44.064;12.566;2023-03-01T00:53:50;15.48;;;6.13;;
49015;SDS011;34830;44.064;12.566;2023-03-01T00:56:17;16.67;;;6.97;;
49015;SDS011;34830;44.064;12.566;2023-03-01T00:58:43;13.13;;;5.75;;
49015;SDS011;34830;44.064;12.566;2023-03-01T01:01:10;19.08;;;5.97;;
49015;SDS011;34830;44.064;12.566;2023-03-01T01:03:43;17.67;;;5.85;;
49015;SDS011;34830;44.064;12.566;2023-03-01T01:06:14;17.90;;;6.40;;
49015;SDS011;34830;44.064;12.566;2023-03-01T01:08:45;13.10;;;5.53;;
49015;SDS011;34830;44.064;12.566;2023-03-01T01:11:11;18.58;;;6.07;;
49015;SDS011;34830;44.064;12.566;2023-03-01T01:13:38;17.95;;;5.75;;
49015;SDS011;34830;44.064;12.566;2023-03-01T01:16:06;18.75;;;6.25;;
49015;SDS011;34830;44.064;12.566;2023-03-01T01:18:33;16.63;;;7.20;;
49015;SDS011;34830;44.064;12.566;2023-03-01T01:21:09;14.15;;;5.78;;
49015;SDS011;34830;44.064;12.566;2023-03-01T01:23:41;17.88;;;6.55;;
49015;SDS011;34830;44.064;12.566;2023-03-01T01:26:09;9.90;;;5.47;;
49015;SDS011;34830;44.064;12.566;2023-03-01T01:28:37;16.00;;;5.13;;
49015;SDS011;34830;44.064;12.566;2023-03-01T01:31:03;12.88;;;4.78;;
49015;SDS011;34830;44.064;12.566;2023-03-01T01:33:30;11.10;;;4.80;;
49015;SDS011;34830;44.064;12.566;2023-03-01T01:35:56;12.98;;;5.57;;
49015;SDS011;34830;44.064;12.566;2023-03-01T01:38:23;16.88;;;6.68;;
49015;SDS011;34830;44.064;12.566;2023-03-01T01:40:49;17.65;;;5.80;;
49015;SDS011;34830;44.064;12.566;2023-03-01T01:43:35;11.38;;;5.70;;
49015;SDS011;34830;44.064;12.566;2023-03-01T01:49:01;32.22;;;20.13;;
49015;SDS011;34830;44.064;12.566;2023-03-01T01:51:31;35.85;;;20.27;;
49015;SDS011;34830;44.064;12.566;2023-03-01T01:54:12;36.47;;;21.33;;
49015;SDS011;34830;44.064;12.566;2023-03-01T01:56:42;40.22;;;22.00;;
49015;SDS011;34830;44.064;12.566;2023-03-01T01:59:10;38.63;;;22.35;;
49015;SDS011;34830;44.064;12.566;2023-03-01T02:01:37;46.90;;;22.90;;
49015;SDS011;34830;44.064;12.566;2023-03-01T02:04:03;50.10;;;24.17;;
49015;SDS011;34830;44.064;12.566;2023-03-01T02:06:41;42.55;;;21.92;;
49015;SDS011;34830;44.064;12.566;2023-03-01T02:09:13;37.92;;;21.92;;
49015;SDS011;34830;44.064;12.566;2023-03-01T02:11:40;43.20;;;22.92;;
49015;SDS011;34830;44.064;12.566;2023-03-01T02:14:06;43.28;;;23.20;;
49015;SDS011;34830;44.064;12.566;2023-03-01T02:16:32;43.05;;;23.85;;
49015;SDS011;34830;44.064;12.566;2023-03-01T02:18:58;42.08;;;23.25;;
49015;SDS011;34830;44.064;12.566;2023-03-01T02:26:59;45.00;;;24.45;;
49015;SDS011;34830;44.064;12.566;2023-03-01T02:29:26;51.90;;;25.70;;
49015;SDS011;34830;44.064;12.566;2023-03-01T02:31:52;41.75;;;23.42;;
49015;SDS011;34830;44.064;12.566;2023-03-01T02:34:22;47.03;;;24.17;;
49015;SDS011;34830;44.064;12.566;2023-03-01T02:36:52;47.33;;;25.33;;
49015;SDS011;34830;44.064;12.566;2023-03-01T02:39:25;43.80;;;25.00;;
49015;SDS011;34830;44.064;12.566;2023-03-01T02:41:54;48.92;;;25.40;;
49015;SDS011;34830;44.064;12.566;2023-03-01T02:44:22;46.60;;;24.25;;
49015;SDS011;34830;44.064;12.566;2023-03-01T02:46:50;46.28;;;24.50;;
49015;SDS011;34830;44.064;12.566;2023-03-01T02:49:19;42.17;;;22.85;;
49015;SDS011;34830;44.064;12.566;2023-03-01T02:54:43;51.05;;;26.50;;
49015;SDS011;34830;44.064;12.566;2023-03-01T02:57:16;48.53;;;25.05;;
49015;SDS011;34830;44.064;12.566;2023-03-01T02:59:42;47.17;;;24.25;;
49015;SDS011;34830;44.064;12.566;2023-03-01T03:02:22;42.58;;;24.42;;
49015;SDS011;34830;44.064;12.566;2023-03-01T03:05:23;49.13;;;24.67;;
49015;SDS011;34830;44.064;12.566;2023-03-01T03:07:54;47.50;;;24.42;;
49015;SDS011;34830;44.064;12.566;2023-03-01T03:10:22;50.22;;;24.13;;
49015;SDS011;34830;44.064;12.566;2023-03-01T03:12:51;53.42;;;26.60;;
49015;SDS011;34830;44.064;12.566;2023-03-01T03:15:18;46.92;;;23.67;;
49015;SDS011;34830;44.064;12.566;2023-03-01T03:17:46;48.75;;;24.70;;
49015;SDS011;34830;44.064;12.566;2023-03-01T03:20:13;43.30;;;23.67;;
49015;SDS011;34830;44.064;12.566;2023-03-01T03:22:45;47.67;;;24.13;;
49015;SDS011;34830;44.064;12.566;2023-03-01T03:25:12;67.47;;;25.42;;
49015;SDS011;34830;44.064;12.566;2023-03-01T03:27:38;48.63;;;24.60;;
49015;SDS011;34830;44.064;12.566;2023-03-01T03:30:06;44.47;;;24.02;;
49015;SDS011;34830;44.064;12.566;2023-03-01T03:32:38;47.13;;;22.70;;
49015;SDS011;34830;44.064;12.566;2023-03-01T03:35:05;48.30;;;22.85;;
49015;SDS011;34830;44.064;12.566;2023-03-01T03:37:38;42.40;;;22.70;;
49015;SDS011;34830;44.064;12.566;2023-03-01T03:40:24;42.13;;;22.75;;
49015;SDS011;34830;44.064;12.566;2023-03-01T03:42:51;50.72;;;23.20;;
49015;SDS011;34830;44.064;12.566;2023-03-01T03:45:17;42.92;;;23.40;;
49015;SDS011;34830;44.064;12.566;2023-03-01T03:47:43;47.65;;;22.92;;
49015;SDS011;34830;44.064;12.566;2023-03-01T03:50:10;42.20;;;21.88;;
49015;SDS011;34830;44.064;12.566;2023-03-01T03:52:38;46.63;;;23.35;;
49015;SDS011;34830;44.064;12.566;2023-03-01T03:55:04;44.70;;;21.85;;
49015;SDS011;34830;44.064;12.566;2023-03-01T03:57:37;47.70;;;23.05;;
49015;SDS011;34830;44.064;12.566;2023-03-01T04:00:04;45.65;;;23.52;;
49015;SDS011;34830;44.064;12.566;2023-03-01T04:02:41;45.95;;;22.38;;
49015;SDS011;34830;44.064;12.566;2023-03-01T04:05:08;42.88;;;21.25;;
49015;SDS011;34830;44.064;12.566;2023-03-01T04:07:35;44.53;;;20.92;;
49015;SDS011;34830;44.064;12.566;2023-03-01T04:10:05;40.80;;;21.15;;
49015;SDS011;34830;44.064;12.566;2023-03-01T04:15:00;39.88;;;21.17;;
49015;SDS011;34830;44.064;12.566;2023-03-01T04:17:26;42.33;;;20.35;;
49015;SDS011;34830;44.064;12.566;2023-03-01T04:19:53;37.05;;;19.63;;
49015;SDS011;34830;44.064;12.566;2023-03-01T04:22:19;41.28;;;20.10;;
49015;SDS011;34830;44.064;12.566;2023-03-01T04:24:45;38.20;;;20.40;;
49015;SDS011;34830;44.064;12.566;2023-03-01T04:27:11;38.78;;;20.38;;
49015;SDS011;34830;44.064;12.566;2023-03-01T04:29:37;36.45;;;19.73;;
49015;SDS011;34830;44.064;12.566;2023-03-01T04:32:03;38.67;;;19.48;;
49015;SDS011;34830;44.064;12.566;2023-03-01T04:34:30;39.22;;;20.55;;
49015;SDS011;34830;44.064;12.566;2023-03-01T04:36:56;37.55;;;18.80;;
49015;SDS011;34830;44.064;12.566;2023-03-01T04:39:22;40.17;;;19.98;;
49015;SDS011;34830;44.064;12.566;2023-03-01T04:41:48;35.50;;;19.58;;
49015;SDS011;34830;44.064;12.566;2023-03-01T04:44:14;40.40;;;20.58;;
49015;SDS011;34830;44.064;12.566;2023-03-01T04:46:40;39.38;;;18.88;;
49015;SDS011;34830;44.064;12.566;2023-03-01T04:49:06;37.45;;;18.75;;
49015;SDS011;34830;44.064;12.566;2023-03-01T04:51:32;41.17;;;20.13;;
49015;SDS011;34830;44.064;12.566;2023-03-01T04:53:58;34.38;;;18.33;;
49015;SDS011;34830;44.064;12.566;2023-03-01T04:56:26;33.47;;;19.73;;
49015;SDS011;34830;44.064;12.566;2023-03-01T04:58:55;42.03;;;18.88;;
49015;SDS011;34830;44.064;12.566;2023-03-01T05:01:21;38.15;;;19.52;;
49015;SDS011;34830;44.064;12.566;2023-03-01T05:03:48;37.30;;;19.02;;
49015;SDS011;34830;44.064;12.566;2023-03-01T05:06:16;30.38;;;17.08;;
49015;SDS011;34830;44.064;12.566;2023-03-01T05:08:43;34.42;;;17.63;;
49015;SDS011;34830;44.064;12.566;2023-03-01T05:11:09;32.33;;;18.38;;
49015;SDS011;34830;44.064;12.566;2023-03-01T05:13:36;36.20;;;18.88;;
49015;SDS011;34830;44.064;12.566;2023-03-01T05:16:03;35.58;;;18.38;;
49015;SDS011;34830;44.064;12.566;2023-03-01T05:18:31;35.63;;;20.08;;
49015;SDS011;34830;44.064;12.566;2023-03-01T05:21:06;32.33;;;17.70;;
49015;SDS011;34830;44.064;12.566;2023-03-01T05:23:33;35.83;;;18.65;;
49015;SDS011;34830;44.064;12.566;2023-03-01T05:26:00;40.53;;;18.52;;
49015;SDS011;34830;44.064;12.566;2023-03-01T05:28:27;35.50;;;16.42;;
49015;SDS011;34830;44.064;12.566;2023-03-01T05:30:54;34.13;;;19.50;;
49015;SDS011;34830;44.064;12.566;2023-03-01T05:33:20;34.15;;;18.40;;
49015;SDS011;34830;44.064;12.566;2023-03-01T05:35:48;35.85;;;19.23;;
49015;SDS011;34830;44.064;12.566;2023-03-01T05:38:15;38.42;;;18.38;;
49015;SDS011;34830;44.064;12.566;2023-03-01T05:40:41;36.78;;;18.58;;
49015;SDS011;34830;44.064;12.566;2023-03-01T05:43:09;36.10;;;17.95;;
49015;SDS011;34830;44.064;12.566;2023-03-01T05:45:36;35.72;;;17.77;;
49015;SDS011;34830;44.064;12.566;2023-03-01T05:48:04;36.15;;;17.65;;
49015;SDS011;34830;44.064;12.566;2023-03-01T05:50:38;36.05;;;18.13;;
49015;SDS011;34830;44.064;12.566;2023-03-01T05:53:12;37.10;;;18.20;;
49015;SDS011;34830;44.064;12.566;2023-03-01T05:55:40;32.67;;;18.33;;
49015;SDS011;34830;44.064;12.566;2023-03-01T05:58:09;37.33;;;19.60;;
49015;SDS011;34830;44.064;12.566;2023-03-01T06:00:36;39.38;;;18.88;;
49015;SDS011;34830;44.064;12.566;2023-03-01T06:03:02;33.22;;;19.30;;
49015;SDS011;34830;44.064;12.566;2023-03-01T06:05:29;37.75;;;19.17;;
49015;SDS011;34830;44.064;12.566;2023-03-01T06:07:56;37.10;;;18.63;;
49015;SDS011;34830;44.064;12.566;2023-03-01T06:10:24;41.10;;;18.30;;
49015;SDS011;34830;44.064;12.566;2023-03-01T06:12:50;33.05;;;18.58;;
49015;SDS011;34830;44.064;12.566;2023-03-01T06:15:16;38.05;;;17.33;;
49015;SDS011;34830;44.064;12.566;2023-03-01T06:17:43;36.03;;;18.08;;
49015;SDS011;34830;44.064;12.566;2023-03-01T06:20:11;35.78;;;19.00;;
49015;SDS011;34830;44.064;12.566;2023-03-01T06:23:04;36.22;;;18.42;;
49015;SDS011;34830;44.064;12.566;2023-03-01T06:25:30;34.47;;;18.70;;
49015;SDS011;34830;44.064;12.566;2023-03-01T06:27:56;35.83;;;18.45;;
49015;SDS011;34830;44.064;12.566;2023-03-01T06:30:22;35.53;;;17.23;;
49015;SDS011;34830;44.064;12.566;2023-03-01T06:32:50;30.88;;;17.23;;
49015;SDS011;34830;44.064;12.566;2023-03-01T06:35:17;33.65;;;17.75;;
49015;SDS011;34830;44.064;12.566;2023-03-01T06:37:44;35.67;;;18.48;;
49015;SDS011;34830;44.064;12.566;2023-03-01T06:40:11;36.78;;;19.50;;
49015;SDS011;34830;44.064;12.566;2023-03-01T06:42:40;38.70;;;18.90;;
49015;SDS011;34830;44.064;12.566;2023-03-01T06:45:08;36.15;;;18.90;;
49015;SDS011;34830;44.064;12.566;2023-03-01T06:47:35;35.13;;;19.63;;
49015;SDS011;34830;44.064;12.566;2023-03-01T06:50:01;38.05;;;19.05;;
49015;SDS011;34830;44.064;12.566;2023-03-01T06:52:28;39.63;;;19.73;;
49015;SDS011;34830;44.064;12.566;2023-03-01T06:54:55;34.70;;;17.75;;
49015;SDS011;34830;44.064;12.566;2023-03-01T06:57:21;39.97;;;20.95;;
49015;SDS011;34830;44.064;12.566;2023-03-01T06:59:47;50.97;;;21.48;;
49015;SDS011;34830;44.064;12.566;2023-03-01T07:02:13;42.70;;;18.90;;
49015;SDS011;34830;44.064;12.566;2023-03-01T07:04:41;38.85;;;19.65;;
49015;SDS011;34830;44.064;12.566;2023-03-01T07:07:07;38.67;;;20.13;;
49015;SDS011;34830;44.064;12.566;2023-03-01T07:09:34;38.15;;;20.48;;
49015;SDS011;34830;44.064;12.566;2023-03-01T07:12:00;32.58;;;18.63;;
49015;SDS011;34830;44.064;12.566;2023-03-01T07:14:26;38.50;;;20.92;;
49015;SDS011;34830;44.064;12.566;2023-03-01T07:16:52;40.53;;;18.55;;
49015;SDS011;34830;44.064;12.566;2023-03-01T07:19:19;62.83;;;22.35;;
49015;SDS011;34830;44.064;12.566;2023-03-01T07:21:45;39.10;;;20.42;;
49015;SDS011;34830;44.064;12.566;2023-03-01T07:24:12;38.50;;;20.60;;
49015;SDS011;34830;44.064;12.566;2023-03-01T07:26:38;41.58;;;19.52;;
49015;SDS011;34830;44.064;12.566;2023-03-01T07:29:05;42.17;;;19.83;;
49015;SDS011;34830;44.064;12.566;2023-03-01T07:31:32;36.45;;;18.45;;
49015;SDS011;34830;44.064;12.566;2023-03-01T07:33:58;41.75;;;19.08;;
49015;SDS011;34830;44.064;12.566;2023-03-01T07:36:24;45.15;;;19.83;;
49015;SDS011;34830;44.064;12.566;2023-03-01T07:38:50;34.95;;;18.63;;
49015;SDS011;34830;44.064;12.566;2023-03-01T07:41:17;40.50;;;20.33;;
49015;SDS011;34830;44.064;12.566;2023-03-01T07:43:43;36.45;;;19.40;;
49015;SDS011;34830;44.064;12.566;2023-03-01T07:46:09;41.05;;;20.67;;
49015;SDS011;34830;44.064;12.566;2023-03-01T07:48:35;40.28;;;20.17;;
49015;SDS011;34830;44.064;12.566;2023-03-01T07:51:02;44.50;;;23.13;;
49015;SDS011;34830;44.064;12.566;2023-03-01T07:53:30;40.80;;;20.23;;
49015;SDS011;34830;44.064;12.566;2023-03-01T07:56:03;36.90;;;20.30;;
49015;SDS011;34830;44.064;12.566;2023-03-01T07:58:33;39.65;;;19.88;;
49015;SDS011;34830;44.064;12.566;2023-03-01T08:01:03;39.08;;;20.90;;
49015;SDS011;34830;44.064;12.566;2023-03-01T08:03:30;36.38;;;20.23;;
49015;SDS011;34830;44.064;12.566;2023-03-01T08:05:58;35.08;;;17.92;;
49015;SDS011;34830;44.064;12.566;2023-03-01T08:08:25;42.03;;;20.45;;
49015;SDS011;34830;44.064;12.566;2023-03-01T08:10:51;35.47;;;19.02;;
49015;SDS011;34830;44.064;12.566;2023-03-01T08:13:17;44.83;;;21.92;;
49015;SDS011;34830;44.064;12.566;2023-03-01T08:15:48;38.78;;;20.65;;
49015;SDS011;34830;44.064;12.566;2023-03-01T08:18:15;32.40;;;19.60;;
49015;SDS011;34830;44.064;12.566;2023-03-01T08:20:42;35.33;;;18.25;;
49015;SDS011;34830;44.064;12.566;2023-03-01T08:23:08;36.25;;;20.10;;
49015;SDS011;34830;44.064;12.566;2023-03-01T08:25:34;37.25;;;19.08;;
49015;SDS011;34830;44.064;12.566;2023-03-01T08:28:00;40.30;;;21.85;;
49015;SDS011;34830;44.064;12.566;2023-03-01T08:30:26;44.97;;;20.35;;
49015;SDS011;34830;44.064;12.566;2023-03-01T08:32:52;35.35;;;19.67;;
49015;SDS011;34830;44.064;12.566;2023-03-01T08:35:19;33.33;;;19.02;;
49015;SDS011;34830;44.064;12.566;2023-03-01T08:37:46;36.13;;;19.42;;
49015;SDS011;34830;44.064;12.566;2023-03-01T08:40:12;39.83;;;19.13;;
49015;SDS011;34830;44.064;12.566;2023-03-01T08:42:39;32.72;;;18.77;;
49015;SDS011;34830;44.064;12.566;2023-03-01T08:45:06;41.22;;;19.42;;
49015;SDS011;34830;44.064;12.566;2023-03-01T08:47:33;37.20;;;20.25;;
49015;SDS011;34830;44.064;12.566;2023-03-01T08:49:59;46.47;;;20.23;;
49015;SDS011;34830;44.064;12.566;2023-03-01T08:52:26;41.55;;;19.85;;
49015;SDS011;34830;44.064;12.566;2023-03-01T08:54:52;38.53;;;19.92;;
49015;SDS011;34830;44.064;12.566;2023-03-01T08:57:18;45.10;;;21.15;;
49015;SDS011;34830;44.064;12.566;2023-03-01T08:59:44;39.00;;;20.70;;
49015;SDS011;34830;44.064;12.566;2023-03-01T09:02:14;44.47;;;20.08;;
49015;SDS011;34830;44.064;12.566;2023-03-01T09:04:43;37.83;;;19.73;;
49015;SDS011;34830;44.064;12.566;2023-03-01T09:07:10;44.28;;;21.80;;
49015;SDS011;34830;44.064;12.566;2023-03-01T09:09:36;36.70;;;19.17;;
49015;SDS011;34830;44.064;12.566;2023-03-01T09:12:03;40.25;;;20.58;;
49015;SDS011;34830;44.064;12.566;2023-03-01T09:14:29;36.83;;;18.45;;
49015;SDS011;34830;44.064;12.566;2023-03-01T09:16:55;42.60;;;19.80;;
49015;SDS011;34830;44.064;12.566;2023-03-01T09:19:21;39.50;;;19.95;;
49015;SDS011;34830;44.064;12.566;2023-03-01T09:21:48;37.45;;;19.02;;
49015;SDS011;34830;44.064;12.566;2023-03-01T09:24:22;37.67;;;19.33;;
49015;SDS011;34830;44.064;12.566;2023-03-01T09:26:49;37.95;;;20.02;;
49015;SDS011;34830;44.064;12.566;2023-03-01T09:29:16;40.88;;;18.83;;
49015;SDS011;34830;44.064;12.566;2023-03-01T09:31:42;38.70;;;20.33;;
49015;SDS011;34830;44.064;12.566;2023-03-01T09:34:08;41.88;;;18.88;;
49015;SDS011;34830;44.064;12.566;2023-03-01T09:36:38;41.28;;;20.27;;
49015;SDS011;34830;44.064;12.566;2023-03-01T09:39:04;39.97;;;19.13;;
49015;SDS011;34830;44.064;12.566;2023-03-01T09:46:45;43.47;;;20.98;;
49015;SDS011;34830;44.064;12.566;2023-03-01T09:49:13;38.55;;;21.02;;
49015;SDS011;34830;44.064;12.566;2023-03-01T09:51:42;33.80;;;18.10;;
49015;SDS011;34830;44.064;12.566;2023-03-01T09:54:19;37.67;;;21.58;;
49015;SDS011;34830;44.064;12.566;2023-03-01T09:56:46;38.72;;;20.88;;
49015;SDS011;34830;44.064;12.566;2023-03-01T10:05:03;38.40;;;20.15;;
49015;SDS011;34830;44.064;12.566;2023-03-01T10:10:10;46.25;;;21.40;;
49015;SDS011;34830;44.064;12.566;2023-03-01T10:12:47;40.67;;;20.17;;
49015;SDS011;34830;44.064;12.566;2023-03-01T10:15:15;42.15;;;21.80;;
49015;SDS011;34830;44.064;12.566;2023-03-01T10:17:49;46.85;;;20.77;;
49015;SDS011;34830;44.064;12.566;2023-03-01T10:20:19;45.35;;;23.00;;
49015;SDS011;34830;44.064;12.566;2023-03-01T10:22:49;42.85;;;20.08;;
49015;SDS011;34830;44.064;12.566;2023-03-01T10:28:20;40.75;;;22.25;;
49015;SDS011;34830;44.064;12.566;2023-03-01T10:30:53;49.47;;;22.25;;
49015;SDS011;34830;44.064;12.566;2023-03-01T10:36:05;44.22;;;21.95;;
49015;SDS011;34830;44.064;12.566;2023-03-01T10:38:46;44.20;;;24.25;;
49015;SDS011;34830;44.064;12.566;2023-03-01T10:41:14;42.55;;;20.85;;
49015;SDS011;34830;44.064;12.566;2023-03-01T10:43:48;38.63;;;21.83;;
49015;SDS011;34830;44.064;12.566;2023-03-01T10:46:21;46.72;;;22.77;;
49015;SDS011;34830;44.064;12.566;2023-03-01T10:49:10;43.47;;;20.98;;
49015;SDS011;34830;44.064;12.566;2023-03-01T10:51:38;43.63;;;20.73;;
49015;SDS011;34830;44.064;12.566;2023-03-01T10:54:06;42.88;;;22.02;;
49015;SDS011;34830;44.064;12.566;2023-03-01T10:56:51;49.78;;;22.23;;
49015;SDS011;34830;44.064;12.566;2023-03-01T10:59:22;51.00;;;23.75;;
49015;SDS011;34830;44.064;12.566;2023-03-01T11:04:56;46.10;;;24.23;;
49015;SDS011;34830;44.064;12.566;2023-03-01T11:07:52;37.70;;;21.45;;
49015;SDS011;34830;44.064;12.566;2023-03-01T11:10:25;45.85;;;22.55;;
49015;SDS011;34830;44.064;12.566;2023-03-01T11:13:08;46.92;;;23.92;;
49015;SDS011;34830;44.064;12.566;2023-03-01T11:15:40;44.72;;;22.80;;
49015;SDS011;34830;44.064;12.566;2023-03-01T11:18:20;42.85;;;22.08;;
49015;SDS011;34830;44.064;12.566;2023-03-01T11:20:47;49.28;;;23.02;;
49015;SDS011;34830;44.064;12.566;2023-03-01T11:23:14;46.95;;;22.35;;
49015;SDS011;34830;44.064;12.566;2023-03-01T11:25:42;47.65;;;23.20;;
49015;SDS011;34830;44.064;12.566;2023-03-01T11:28:17;42.53;;;22.42;;
49015;SDS011;34830;44.064;12.566;2023-03-01T11:33:24;44.13;;;21.85;;
49015;SDS011;34830;44.064;12.566;2023-03-01T11:36:07;47.33;;;23.52;;
49015;SDS011;34830;44.064;12.566;2023-03-01T11:38:39;47.83;;;23.20;;
49015;SDS011;34830;44.064;12.566;2023-03-01T11:41:06;43.63;;;24.50;;
49015;SDS011;34830;44.064;12.566;2023-03-01T11:51:48;42.15;;;21.70;;
49015;SDS011;34830;44.064;12.566;2023-03-01T11:57:26;61.95;;;21.35;;
49015;SDS011;34830;44.064;12.566;2023-03-01T12:03:16;34.05;;;19.70;;
49015;SDS011;34830;44.064;12.566;2023-03-01T12:09:02;37.75;;;19.88;;
49015;SDS011;34830;44.064;12.566;2023-03-01T12:29:07;31.85;;;17.45;;
49015;SDS011;34830;44.064;12.566;2023-03-01T12:45:34;24.98;;;15.50;;
49015;SDS011;34830;44.064;12.566;2023-03-01T12:50:56;27.58;;;16.02;;
49015;SDS011;34830;44.064;12.566;2023-03-01T12:53:32;25.98;;;14.73;;
49015;SDS011;34830;44.064;12.566;2023-03-01T12:56:05;25.80;;;14.52;;
49015;SDS011;34830;44.064;12.566;2023-03-01T13:09:39;26.13;;;14.40;;
49015;SDS011;34830;44.064;12.566;2023-03-01T13:17:52;26.45;;;15.60;;
49015;SDS011;34830;44.064;12.566;2023-03-01T13:20:21;29.92;;;16.85;;
49015;SDS011;34830;44.064;12.566;2023-03-01T13:23:02;28.33;;;15.88;;
49015;SDS011;34830;44.064;12.566;2023-03-01T13:31:11;27.20;;;15.23;;
49015;SDS011;34830;44.064;12.566;2023-03-01T13:34:00;29.10;;;15.60;;
49015;SDS011;34830;44.064;12.566;2023-03-01T13:39:02;20.20;;;12.38;;
49015;SDS011;34830;44.064;12.566;2023-03-01T13:44:38;20.20;;;11.05;;
49015;SDS011;34830;44.064;12.566;2023-03-01T13:47:05;18.38;;;11.15;;
49015;SDS011;34830;44.064;12.566;2023-03-01T13:49:47;23.50;;;12.68;;
49015;SDS011;34830;44.064;12.566;2023-03-01T13:55:22;25.35;;;12.13;;
49015;SDS011;34830;44.064;12.566;2023-03-01T13:57:52;23.42;;;13.38;;
49015;SDS011;34830;44.064;12.566;2023-03-01T14:00:26;22.25;;;12.50;;
49015;SDS011;34830;44.064;12.566;2023-03-01T14:03:02;25.57;;;14.43;;
49015;SDS011;34830;44.064;12.566;2023-03-01T14:05:32;23.73;;;14.13;;
49015;SDS011;34830;44.064;12.566;2023-03-01T14:07:59;27.65;;;14.93;;
49015;SDS011;34830;44.064;12.566;2023-03-01T14:10:31;26.17;;;15.80;;
49015;SDS011;34830;44.064;12.566;2023-03-01T14:13:12;23.85;;;15.75;;
49015;SDS011;34830;44.064;12.566;2023-03-01T14:15:49;27.55;;;16.23;;
49015;SDS011;34830;44.064;12.566;2023-03-01T14:18:32;27.73;;;15.95;;
49015;SDS011;34830;44.064;12.566;2023-03-01T14:21:06;22.67;;;15.57;;
49015;SDS011;34830;44.064;12.566;2023-03-01T14:23:33;25.42;;;17.08;;
49015;SDS011;34830;44.064;12.566;2023-03-01T14:26:01;23.90;;;15.50;;
49015;SDS011;34830;44.064;12.566;2023-03-01T14:28:28;27.90;;;16.25;;
49015;SDS011;34830;44.064;12.566;2023-03-01T14:30:56;27.42;;;17.30;;
49015;SDS011;34830;44.064;12.566;2023-03-01T14:33:24;24.90;;;15.90;;
49015;SDS011;34830;44.064;12.566;2023-03-01T14:36:06;25.80;;;16.58;;
49015;SDS011;34830;44.064;12.566;2023-03-01T14:38:38;26.13;;;16.00;;
49015;SDS011;34830;44.064;12.566;2023-03-01T14:43:43;26.20;;;16.27;;
49015;SDS011;34830;44.064;12.566;2023-03-01T14:46:21;26.40;;;17.10;;
49015;SDS011;34830;44.064;12.566;2023-03-01T14:48:53;31.55;;;16.52;;
49015;SDS011;34830;44.064;12.566;2023-03-01T14:51:21;27.83;;;17.10;;
49015;SDS011;34830;44.064;12.566;2023-03-01T14:53:47;26.08;;;16.00;;
49015;SDS011;34830;44.064;12.566;2023-03-01T14:56:14;27.95;;;16.45;;
49015;SDS011;34830;44.064;12.566;2023-03-01T14:58:43;24.65;;;15.52;;
49015;SDS011;34830;44.064;12.566;2023-03-01T15:01:10;30.75;;;17.58;;
49015;SDS011;34830;44.064;12.566;2023-03-01T15:03:41;28.07;;;16.53;;
49015;SDS011;34830;44.064;12.566;2023-03-01T15:06:11;23.70;;;15.07;;
49015;SDS011;34830;44.064;12.566;2023-03-01T15:08:41;26.02;;;16.27;;
49015;SDS011;34830;44.064;12.566;2023-03-01T15:13:39;28.35;;;17.85;;
49015;SDS011;34830;44.064;12.566;2023-03-01T15:16:10;28.75;;;17.23;;
49015;SDS011;34830;44.064;12.566;2023-03-01T15:21:07;24.70;;;16.05;;
49015;SDS011;34830;44.064;12.566;2023-03-01T15:23:35;29.52;;;16.83;;
49015;SDS011;34830;44.064;12.566;2023-03-01T15:26:02;25.60;;;16.00;;
49015;SDS011;34830;44.064;12.566;2023-03-01T15:28:30;28.83;;;15.82;;
49015;SDS011;34830;44.064;12.566;2023-03-01T15:31:03;27.27;;;15.48;;
49015;SDS011;34830;44.064;12.566;2023-03-01T15:33:38;25.20;;;15.68;;
49015;SDS011;34830;44.064;12.566;2023-03-01T15:39:02;20.83;;;14.20;;
49015;SDS011;34830;44.064;12.566;2023-03-01T15:47:04;19.85;;;13.98;;
49015;SDS011;34830;44.064;12.566;2023-03-01T15:49:37;20.30;;;13.82;;
49015;SDS011;34830;44.064;12.566;2023-03-01T15:52:06;25.50;;;16.65;;
49015;SDS011;34830;44.064;12.566;2023-03-01T15:54:38;20.17;;;13.18;;
49015;SDS011;34830;44.064;12.566;2023-03-01T15:57:10;22.15;;;13.38;;
49015;SDS011;34830;44.064;12.566;2023-03-01T15:59:39;16.73;;;11.18;;
49015;SDS011;34830;44.064;12.566;2023-03-01T16:02:08;15.77;;;10.25;;
49015;SDS011;34830;44.064;12.566;2023-03-01T16:04:39;15.88;;;10.98;;
49015;SDS011;34830;44.064;12.566;2023-03-01T16:07:05;13.88;;;10.73;;
49015;SDS011;34830;44.064;12.566;2023-03-01T16:09:31;15.00;;;10.35;;
49015;SDS011;34830;44.064;12.566;2023-03-01T16:11:57;15.95;;;10.80;;
49015;SDS011;34830;44.064;12.566;2023-03-01T16:14:24;18.95;;;11.55;;
49015;SDS011;34830;44.064;12.566;2023-03-01T16:16:50;17.77;;;11.05;;
49015;SDS011;34830;44.064;12.566;2023-03-01T16:19:16;17.88;;;11.75;;
49015;SDS011;34830;44.064;12.566;2023-03-01T16:21:42;16.88;;;11.73;;
49015;SDS011;34830;44.064;12.566;2023-03-01T16:24:12;16.98;;;10.90;;
49015;SDS011;34830;44.064;12.566;2023-03-01T16:26:39;14.77;;;10.90;;
49015;SDS011;34830;44.064;12.566;2023-03-01T16:29:05;13.25;;;9.82;;
49015;SDS011;34830;44.064;12.566;2023-03-01T16:31:31;12.43;;;8.43;;
49015;SDS011;34830;44.064;12.566;2023-03-01T16:33:57;12.25;;;8.20;;
49015;SDS011;34830;44.064;12.566;2023-03-01T16:36:25;10.18;;;7.45;;
49015;SDS011;34830;44.064;12.566;2023-03-01T16:38:54;10.10;;;6.95;;
49015;SDS011;34830;44.064;12.566;2023-03-01T16:41:22;8.57;;;6.45;;